createdAt,value
2022-12-03T00:00:55.894Z,-1.72
2022-12-03T00:04:33.620Z,-1.75
2022-12-03T00:08:30.109Z,-1.75
2022-12-03T00:11:51.688Z,-1.73
2022-12-03T00:15:29.390Z,-1.71
2022-12-03T00:19:07.763Z,-1.64
2022-12-03T00:22:44.908Z,-1.57
2022-12-03T00:26:22.282Z,-1.54
2022-12-03T00:29:59.856Z,-1.51
2022-12-03T00:33:37.705Z,-1.52
2022-12-03T00:37:15.271Z,-1.52
2022-12-03T00:41:12.371Z,-1.51
2022-12-03T00:44:34.117Z,-1.53
2022-12-03T00:48:30.683Z,-1.53
2022-12-03T00:52:11.414Z,-1.50
2022-12-03T00:55:33.290Z,-1.43
2022-12-03T00:59:10.699Z,-1.31
2022-12-03T01:02:48.569Z,-1.21
2022-12-03T01:06:26.047Z,-1.18
2022-12-03T01:10:04.920Z,-1.18
2022-12-03T01:13:41.367Z,-1.24
2022-12-03T01:17:38.246Z,-1.32
2022-12-03T01:21:00.085Z,-1.32
2022-12-03T01:24:37.968Z,-1.28
2022-12-03T01:28:15.319Z,-1.21
2022-12-03T01:32:12.023Z,-1.16
2022-12-03T01:35:34.310Z,-1.19
2022-12-03T01:39:12.128Z,-1.25
2022-12-03T01:42:49.714Z,-1.32
2022-12-03T01:46:38.026Z,-1.35
2022-12-03T01:50:15.472Z,-1.40
2022-12-03T01:54:02.676Z,-1.45
2022-12-03T01:57:27.428Z,-1.49
2022-12-03T02:01:06.358Z,-1.52
2022-12-03T02:05:00.361Z,-1.53
2022-12-03T02:08:41.147Z,-1.52
2022-12-03T02:12:02.799Z,-1.45
2022-12-03T02:15:40.984Z,-1.35
2022-12-03T02:19:27.399Z,-1.28
2022-12-03T02:23:09.414Z,-1.25
2022-12-03T02:26:33.466Z,-1.26
2022-12-03T02:30:31.403Z,-1.30
2022-12-03T02:33:52.935Z,-1.33
2022-12-03T02:37:55.381Z,-1.35
2022-12-03T02:41:39.338Z,-1.40
2022-12-03T02:45:19.522Z,-1.42
2022-12-03T02:48:41.845Z,-1.41
2022-12-03T02:52:20.329Z,-1.40
2022-12-03T02:56:20.207Z,-1.33
2022-12-03T02:59:42.213Z,-1.25
2022-12-03T03:03:21.050Z,-1.20
2022-12-03T03:07:16.428Z,-1.19
2022-12-03T03:11:00.350Z,-1.19
2022-12-03T03:14:40.705Z,-1.18
2022-12-03T03:18:02.213Z,-1.22
2022-12-03T03:21:39.912Z,-1.26
2022-12-03T03:25:21.148Z,-1.33
2022-12-03T03:28:55.424Z,-1.38
2022-12-03T03:32:34.247Z,-1.41
2022-12-03T03:36:30.678Z,-1.40
2022-12-03T03:40:11.457Z,-1.36
2022-12-03T03:43:52.466Z,-1.27
2022-12-03T03:47:14.879Z,-1.22
2022-12-03T03:50:52.389Z,-1.21
2022-12-03T03:54:29.615Z,-1.20
2022-12-03T03:58:07.275Z,-1.22
2022-12-03T04:02:03.450Z,-1.25
2022-12-03T04:05:44.144Z,-1.27
2022-12-03T04:09:05.823Z,-1.29
2022-12-03T04:26:55.209Z,-0.65
2022-12-03T04:30:17.111Z,-0.68
2022-12-03T04:34:32.275Z,-0.74
2022-12-03T04:38:15.218Z,-0.79
2022-12-03T04:41:36.944Z,-0.88
2022-12-03T04:45:33.663Z,-0.94
2022-12-03T04:49:14.482Z,-0.95
2022-12-03T04:52:54.942Z,-0.91
2022-12-03T04:56:17.067Z,-0.84
2022-12-03T04:59:54.931Z,-0.82
2022-12-03T05:03:32.480Z,-0.82
2022-12-03T05:07:10.269Z,-0.90
2022-12-03T05:10:47.786Z,-0.98
2022-12-03T05:14:25.591Z,-1.05
2022-12-03T05:18:03.209Z,-1.12
2022-12-03T05:21:40.861Z,-1.19
2022-12-03T05:25:18.547Z,-1.26
2022-12-03T05:28:56.291Z,-1.23
2022-12-03T05:32:33.863Z,-1.21
2022-12-03T05:36:12.104Z,-1.18
2022-12-03T05:39:49.163Z,-1.13
2022-12-03T05:43:27.212Z,-1.11
2022-12-03T05:47:23.344Z,-1.12
2022-12-03T05:50:46.809Z,-1.14
2022-12-03T05:54:22.513Z,-1.17
2022-12-03T05:58:19.228Z,-1.21
2022-12-03T06:01:41.931Z,-1.25
2022-12-03T06:05:37.786Z,-1.25
2022-12-03T06:09:18.407Z,-1.22
2022-12-03T06:12:40.637Z,-1.18
2022-12-03T06:16:17.454Z,-1.14
2022-12-03T06:20:16.953Z,-1.08
2022-12-03T06:23:44.667Z,-1.02
2022-12-03T06:27:35.259Z,-1.03
2022-12-03T06:31:15.897Z,-1.10
2022-12-03T06:34:38.339Z,-1.11
2022-12-03T06:38:15.474Z,-1.14
2022-12-03T06:41:53.352Z,-1.17
2022-12-03T06:45:49.802Z,-1.15
2022-12-03T06:49:30.263Z,-1.19
2022-12-03T06:52:51.776Z,-1.12
2022-12-03T06:56:35.006Z,-1.10
2022-12-03T07:00:09.274Z,-1.12
2022-12-03T07:03:44.839Z,-1.18
2022-12-03T07:07:41.301Z,-1.18
2022-12-03T07:11:30.691Z,-1.18
2022-12-03T07:14:52.482Z,-1.19
2022-12-03T07:18:29.946Z,-1.19
2022-12-03T07:22:07.608Z,-1.17
2022-12-03T07:26:04.406Z,-1.07
2022-12-03T07:29:26.563Z,-1.03
2022-12-03T07:33:04.423Z,-1.00
2022-12-03T07:37:00.742Z,-0.95
2022-12-03T07:40:22.543Z,-0.89
2022-12-03T07:44:00.158Z,-0.85
2022-12-03T07:47:56.828Z,-0.83
2022-12-03T07:51:18.844Z,-0.84
2022-12-03T07:55:15.615Z,-0.84
2022-12-03T07:58:56.292Z,-0.83
2022-12-03T08:02:36.858Z,-0.81
2022-12-03T08:05:58.946Z,-0.78
2022-12-03T08:09:39.974Z,-0.73
2022-12-03T08:13:17.172Z,-0.63
2022-12-03T08:16:52.216Z,-0.62
2022-12-03T08:20:35.014Z,-0.72
2022-12-03T08:24:26.401Z,-0.75
2022-12-03T08:28:13.598Z,-0.72
2022-12-03T08:31:35.428Z,-0.70
2022-12-03T08:35:21.543Z,-0.70
2022-12-03T08:39:30.483Z,-0.71
2022-12-03T08:46:31.951Z,-0.78
2022-12-03T08:50:31.386Z,-0.72
2022-12-03T08:54:09.993Z,-0.66
2022-12-03T08:57:36.561Z,-0.57
2022-12-03T09:01:36.436Z,-0.51
2022-12-03T09:05:24.975Z,-0.49
2022-12-03T09:08:47.617Z,-0.57
2022-12-03T09:12:24.546Z,-0.64
2022-12-03T09:16:21.417Z,-0.61
2022-12-03T09:19:46.191Z,-0.55
2022-12-03T09:23:39.462Z,-0.49
2022-12-03T09:27:03.609Z,-0.45
2022-12-03T09:30:38.939Z,-0.39
2022-12-03T09:34:16.622Z,-0.35
2022-12-03T09:37:54.415Z,-0.30
2022-12-03T09:41:50.918Z,-0.33
2022-12-03T09:45:14.686Z,-0.36
2022-12-03T09:48:50.474Z,-0.39
2022-12-03T09:52:49.347Z,-0.43
2022-12-03T09:56:23.391Z,-0.41
2022-12-03T09:59:49.604Z,-0.39
2022-12-03T10:03:30.528Z,-0.27
2022-12-03T10:07:24.587Z,-0.20
2022-12-03T10:11:05.469Z,-0.15
2022-12-03T10:14:46.242Z,-0.12
2022-12-03T10:18:31.020Z,-0.13
2022-12-03T10:22:12.510Z,-0.28
2022-12-03T10:26:02.456Z,-0.38
2022-12-03T10:29:42.268Z,-0.38
2022-12-03T10:33:37.389Z,-0.35
2022-12-03T10:37:31.275Z,-0.17
2022-12-03T10:40:55.091Z,-0.04
2022-12-03T10:44:31.889Z,0.06
2022-12-03T10:48:28.722Z,0.09
2022-12-03T10:52:25.713Z,0.08
2022-12-03T10:56:14.162Z,0.07
2022-12-03T10:59:55.774Z,0.06
2022-12-03T11:03:36.359Z,0.02
2022-12-03T11:08:04.096Z,0.01
2022-12-03T11:11:52.421Z,-0.10
2022-12-03T11:15:42.782Z,-0.23
2022-12-03T11:19:45.648Z,-0.30
2022-12-03T11:23:36.149Z,-0.29
2022-12-03T11:27:04.742Z,-0.35
2022-12-03T11:30:48.841Z,-0.37
2022-12-03T11:34:49.184Z,-0.32
2022-12-03T11:38:50.867Z,-0.32
2022-12-03T11:42:39.468Z,-0.27
2022-12-03T11:46:09.637Z,-0.25
2022-12-03T11:49:46.880Z,-0.23
2022-12-03T11:53:21.274Z,-0.16
2022-12-03T11:57:33.098Z,-0.04
2022-12-03T12:01:15.350Z,0.13
2022-12-03T12:04:38.103Z,0.21
2022-12-03T12:08:19.811Z,0.22
2022-12-03T12:11:52.696Z,0.19
2022-12-03T12:16:08.270Z,0.14
2022-12-03T12:19:40.501Z,0.07
2022-12-03T12:23:34.261Z,-0.01
2022-12-03T12:27:12.024Z,-0.01
2022-12-03T12:30:35.190Z,-0.00
2022-12-03T12:34:12.919Z,0.02
2022-12-03T12:37:59.042Z,0.06
2022-12-03T12:41:27.652Z,0.05
2022-12-03T12:45:29.669Z,0.02
2022-12-03T12:48:55.205Z,0.01
2022-12-03T12:52:29.426Z,-0.03
2022-12-03T12:56:09.492Z,-0.04
2022-12-03T13:00:05.331Z,-0.06
2022-12-03T13:03:33.096Z,-0.11
2022-12-03T13:07:25.451Z,-0.17
2022-12-03T13:10:59.993Z,-0.13
2022-12-03T13:14:30.289Z,-0.09
2022-12-03T13:18:20.654Z,-0.06
2022-12-03T13:22:21.880Z,-0.08
2022-12-03T13:26:00.586Z,-0.16
2022-12-03T13:29:28.137Z,-0.21
2022-12-03T13:33:26.770Z,-0.25
2022-12-03T13:36:57.999Z,-0.29
2022-12-03T13:40:43.331Z,-0.32
2022-12-03T13:44:19.660Z,-0.27
2022-12-03T13:47:48.783Z,-0.25
2022-12-03T13:51:27.097Z,-0.25
2022-12-03T13:55:07.358Z,-0.25
2022-12-03T13:58:40.582Z,-0.26
2022-12-03T14:02:17.479Z,-0.28
2022-12-03T14:05:54.730Z,-0.33
2022-12-03T14:09:34.998Z,-0.40
2022-12-03T14:13:31.286Z,-0.47
2022-12-03T14:16:59.716Z,-0.49
2022-12-03T14:21:02.438Z,-0.52
2022-12-03T14:24:24.997Z,-0.51
2022-12-03T14:28:04.065Z,-0.48
2022-12-03T14:32:01.988Z,-0.52
2022-12-03T14:35:24.066Z,-0.54
2022-12-03T14:39:12.605Z,-0.59
2022-12-03T14:43:04.659Z,-0.61
2022-12-03T14:46:27.488Z,-0.70
2022-12-03T14:50:23.111Z,-0.78
2022-12-03T14:53:44.580Z,-0.80
2022-12-03T14:57:26.296Z,-0.79
2022-12-03T15:01:18.984Z,-0.74
2022-12-03T15:04:41.187Z,-0.65
2022-12-03T15:08:18.361Z,-0.59
2022-12-03T15:11:56.119Z,-0.67
2022-12-03T15:15:33.689Z,-0.75
2022-12-03T15:20:07.752Z,-0.83
2022-12-03T15:23:49.255Z,-0.90
2022-12-03T15:27:11.099Z,-0.96
2022-12-03T15:30:49.821Z,-0.96
2022-12-03T15:34:31.109Z,-0.96
2022-12-03T15:42:22.565Z,-0.99
2022-12-03T15:45:44.913Z,-0.99
2022-12-03T15:49:41.346Z,-0.99
2022-12-03T15:53:21.797Z,-1.04
2022-12-03T15:57:03.541Z,-1.06
2022-12-03T16:00:44.417Z,-1.11
2022-12-03T16:04:06.205Z,-1.15
2022-12-03T16:07:44.032Z,-1.15
2022-12-03T16:11:34.918Z,-1.16
2022-12-03T16:14:59.176Z,-1.16
2022-12-03T16:18:57.296Z,-1.11
2022-12-03T16:22:19.497Z,-1.06
2022-12-03T16:26:02.276Z,-1.00
2022-12-03T16:29:35.777Z,-1.00
2022-12-03T16:33:24.061Z,-1.03
2022-12-03T16:37:14.219Z,-1.06
2022-12-03T16:40:52.859Z,-1.06
2022-12-03T16:45:27.787Z,-1.08
2022-12-03T16:49:16.963Z,-1.06
2022-12-03T16:57:07.533Z,-0.92
2022-12-03T17:00:29.205Z,-0.83
2022-12-03T17:04:09.706Z,-0.81
2022-12-03T17:08:03.366Z,-0.80
2022-12-03T17:11:25.477Z,-0.79
2022-12-03T17:15:22.052Z,-0.83
2022-12-03T17:19:02.828Z,-0.86
2022-12-03T17:22:24.892Z,-0.86
2022-12-03T17:26:21.472Z,-0.83
2022-12-03T17:29:45.235Z,-0.81
2022-12-03T17:33:22.916Z,-0.75
2022-12-03T17:37:19.239Z,-0.70
2022-12-03T17:40:40.780Z,-0.72
2022-12-03T17:44:21.171Z,-0.76
2022-12-03T17:47:56.020Z,-0.78
2022-12-03T17:51:33.763Z,-0.80
2022-12-03T17:55:17.635Z,-0.77
2022-12-03T17:59:08.347Z,-0.73
2022-12-03T18:02:29.777Z,-0.68
2022-12-03T18:06:07.834Z,-0.64
2022-12-03T18:09:45.185Z,-0.65
2022-12-03T18:13:22.825Z,-0.64
2022-12-03T18:17:00.614Z,-0.64
2022-12-03T18:20:38.422Z,-0.66
2022-12-03T18:24:35.030Z,-0.66
2022-12-03T18:28:16.160Z,-0.62
2022-12-03T18:31:57.009Z,-0.55
2022-12-03T18:35:18.913Z,-0.48
2022-12-03T18:38:58.527Z,-0.41
2022-12-03T18:42:54.740Z,-0.34
2022-12-03T18:46:52.949Z,-0.30
2022-12-03T18:50:15.316Z,-0.31
2022-12-03T18:54:13.067Z,-0.33
2022-12-03T18:57:53.859Z,-0.30
2022-12-03T19:01:19.925Z,-0.27
2022-12-03T19:05:11.882Z,-0.22
2022-12-03T19:08:53.859Z,-0.16
2022-12-03T19:12:16.803Z,-0.10
2022-12-03T19:15:55.271Z,-0.06
2022-12-03T19:19:49.681Z,-0.05
2022-12-03T19:23:30.614Z,-0.05
2022-12-03T19:26:54.811Z,-0.07
2022-12-03T19:30:30.252Z,-0.07
2022-12-03T19:34:07.761Z,-0.04
2022-12-03T19:38:04.463Z,-0.01
2022-12-03T19:41:30.545Z,0.04
2022-12-03T19:45:04.665Z,0.09
2022-12-03T19:48:42.359Z,0.12
2022-12-03T19:52:19.464Z,0.11
2022-12-03T19:56:12.450Z,0.10
2022-12-03T19:59:34.960Z,0.11
2022-12-03T20:03:12.739Z,0.10
2022-12-03T20:06:50.403Z,0.12
2022-12-03T20:10:28.126Z,0.16
2022-12-03T20:14:08.726Z,0.20
2022-12-03T20:17:43.436Z,0.24
2022-12-03T20:21:21.180Z,0.25
2022-12-03T20:24:58.909Z,0.24
2022-12-03T20:28:56.786Z,0.26
2022-12-03T20:32:18.318Z,0.30
2022-12-03T20:35:57.269Z,0.35
2022-12-03T20:39:35.420Z,0.37
2022-12-03T20:43:11.155Z,0.39
2022-12-03T20:46:50.190Z,0.39
2022-12-03T20:50:45.383Z,0.39
2022-12-03T20:54:25.867Z,0.39
2022-12-03T20:57:47.753Z,0.40
2022-12-03T21:01:27.359Z,0.45
2022-12-03T21:05:22.195Z,0.47
2022-12-03T21:08:49.997Z,0.51
2022-12-03T21:12:21.891Z,0.54
2022-12-03T21:16:08.641Z,0.56
2022-12-03T21:19:37.920Z,0.53
2022-12-03T21:23:14.870Z,0.52
2022-12-03T21:26:54.879Z,0.51
2022-12-03T21:30:30.238Z,0.52
2022-12-03T21:34:08.751Z,0.56
2022-12-03T21:38:04.396Z,0.60
2022-12-03T21:41:26.708Z,0.59
2022-12-03T21:45:24.424Z,0.59
2022-12-03T21:49:05.110Z,0.61
2022-12-03T21:52:45.816Z,0.63
2022-12-03T21:56:13.686Z,0.67
2022-12-03T21:59:45.286Z,0.70
2022-12-03T22:03:42.731Z,0.73
2022-12-03T22:07:04.927Z,0.74
2022-12-03T22:10:42.429Z,0.71
2022-12-03T22:14:20.909Z,0.67
2022-12-03T22:17:57.537Z,0.64
2022-12-03T22:21:35.681Z,0.62
2022-12-03T22:25:13.014Z,0.66
2022-12-03T22:29:11.046Z,0.72
2022-12-03T22:32:33.036Z,0.77
2022-12-03T22:36:29.756Z,0.80
2022-12-03T22:40:10.648Z,0.83
2022-12-03T22:43:32.612Z,0.83
2022-12-03T22:47:10.249Z,0.81
2022-12-03T22:50:48.581Z,0.84
2022-12-03T22:54:25.599Z,0.86
2022-12-03T22:58:04.443Z,0.87
2022-12-03T23:01:41.671Z,0.89
2022-12-03T23:05:39.160Z,0.89
2022-12-03T23:09:01.464Z,0.84
2022-12-03T23:12:38.628Z,0.81
2022-12-03T23:16:19.257Z,0.78
2022-12-03T23:19:55.597Z,0.77
2022-12-03T23:23:31.714Z,0.79
2022-12-03T23:27:09.460Z,0.81
2022-12-03T23:30:47.192Z,0.82
2022-12-03T23:34:24.986Z,0.80
2022-12-03T23:38:02.555Z,0.77
2022-12-03T23:41:59.029Z,0.74
2022-12-03T23:45:20.860Z,0.73
2022-12-03T23:48:59.433Z,0.78
2022-12-03T23:52:36.208Z,0.82
2022-12-03T23:56:32.786Z,0.85
